Yass Linton Hostel, New South Wales

2:38 PM EST on September 03, 2014 (GMT +1000)
Urban environment | Change Station
CLOSE
Current Station
Personal Weather Station
Location: Yass, NEW SOUTH WALES
Elevation: 1709 ft
Nearby Weather Stations

Elev 1709 ft 34.85 °S, 148.91 °E | Updated 1 second ago

Scattered Clouds
Scattered Clouds
54.0 °F
Feels Like 54.0 °F
N
6.9
Wind Variable Wind from WSW
Gusts 15.9 mph

Today
High -- | Low -- °F
--% Chance of Precip.
Yesterday
High -- | Low -- °F
Precip. -- in
6:21 AM 5:46 PM
First Quarter, 58% visible
Pressure 29.98 in
Visibility 6.2 miles
Clouds Scattered Clouds 5000 ft
Dew Point 34 °F
Humidity 47%
Rainfall 0.00 in
Snow Depth Not available.
UV 4 out of 12
Pollen Not available.
Air Quality Not available.
Flu Activity Not available.
METAR YSCB 030400Z 17016KT 9999 SCT050 13/00 Q1015 FM0400 MOD TURB BLW 5000FT

More Conditions Fewer Conditions

Pressure 29.98 in
Visibility 6.2 miles
Clouds Scattered Clouds 5000 ft
Dew Point 34 °F
Humidity 47%
Rainfall 0.00 in
Snow Depth Not available.
UV 4 out of 12
Pollen Not available.
Air Quality Not available.
Flu Activity Not available.
METAR YSCB 030400Z 17016KT 9999 SCT050 13/00 Q1015 FM0400 MOD TURB BLW 5000FT

More Conditions Fewer Conditions

10-Day Weather Forecast

Almanac

Astronomy

Sep. 03, 2014 Rise Set
Actual Time 6:21 AM EST 5:46 PM EST
Civil Twilight 5:56 AM EST 6:12 PM EST
Nautical Twilight 5:26 AM EST 6:41 PM EST
Astronomical Twilight 4:57 AM EST 7:10 PM EST
Moon 11:32 AM EST 12:54 AM EST
Length of Visible Light 12h 16m
Length of Day
11h 25m
Tomorrow will be 2m 4s longer.
First Quarter, 58% of the Moon is Illuminated
Today
First Quarter
Sep 8
Full
Sep 15
Last Quarter
Sep 24
New
Oct 1
First Quarter

Yesterday's Extremes

Country Highs Country Lows

Community

WunderPhotos

Upload Photos

1,749,870 photos uploaded!

Nearby

Snow Depth

Not available.

Earthquake Activity

City Distance Mag. Time & Date
No recent earthquake activity has been reported nearby.
Minimum magnitude displayed is 2.5.

Coastal Water Temperatures

Place Temperature
No Stations Reporting

Nearby Weather Stations